createdAt,value
2022-12-06T00:01:37.916Z,56.40
2022-12-06T00:05:08.495Z,56.80
2022-12-06T00:07:40.308Z,57.00
2022-12-06T00:10:08.669Z,56.50
2022-12-06T00:12:39.469Z,56.60
2022-12-06T00:15:16.560Z,56.20
2022-12-06T00:17:44.453Z,56.90
2022-12-06T00:24:07.058Z,57.80
2022-12-06T00:26:42.538Z,58.00
2022-12-06T00:29:12.939Z,58.80
2022-12-06T00:31:40.370Z,59.00
2022-12-06T00:34:07.565Z,59.40
2022-12-06T00:36:36.177Z,59.30
2022-12-06T00:39:06.000Z,59.10
2022-12-06T00:41:33.348Z,59.40
2022-12-06T00:44:00.801Z,59.10
2022-12-06T00:46:29.709Z,59.50
2022-12-06T00:48:57.803Z,59.50
2022-12-06T00:51:25.567Z,59.80
2022-12-06T00:53:52.828Z,60.20
2022-12-06T00:56:20.142Z,60.60
2022-12-06T00:58:47.446Z,61.60
2022-12-06T01:01:22.992Z,61.30
2022-12-06T01:03:54.329Z,61.60
2022-12-06T01:06:23.480Z,61.40
2022-12-06T01:08:50.830Z,61.10
2022-12-06T01:11:18.122Z,61.20
2022-12-06T01:13:45.241Z,61.70
2022-12-06T01:16:14.842Z,61.50
2022-12-06T01:18:42.362Z,61.40
2022-12-06T01:21:14.158Z,61.50
2022-12-06T01:23:41.207Z,61.20
2022-12-06T01:26:08.505Z,61.60
2022-12-06T01:28:36.054Z,61.60
2022-12-06T01:31:07.725Z,61.80
2022-12-06T01:33:35.957Z,61.80
2022-12-06T01:36:03.417Z,61.70
2022-12-06T01:39:57.873Z,61.70
2022-12-06T01:46:56.564Z,61.50
2022-12-06T01:49:26.628Z,61.80
2022-12-06T01:52:06.168Z,61.60
2022-12-06T01:54:33.375Z,61.80
2022-12-06T01:57:00.465Z,62.00
2022-12-06T01:59:27.877Z,62.00
2022-12-06T02:01:54.948Z,61.70
2022-12-06T02:04:22.486Z,61.60
2022-12-06T02:06:50.301Z,61.70
2022-12-06T02:09:17.393Z,61.60
2022-12-06T02:11:44.593Z,62.10
2022-12-06T02:14:13.955Z,62.40
2022-12-06T02:16:48.459Z,62.50
2022-12-06T02:19:40.060Z,62.60
2022-12-06T02:22:35.892Z,62.80
2022-12-06T02:25:44.963Z,63.30
2022-12-06T02:28:29.758Z,63.90
2022-12-06T02:31:20.412Z,63.90
2022-12-06T02:33:59.599Z,64.60
2022-12-06T02:36:36.315Z,64.90
2022-12-06T02:39:08.479Z,65.00
2022-12-06T02:41:39.073Z,65.30
2022-12-06T02:44:07.893Z,64.90
2022-12-06T02:46:36.795Z,64.90
2022-12-06T02:49:05.687Z,64.80
2022-12-06T02:51:33.483Z,65.30
2022-12-06T02:54:01.417Z,65.10
2022-12-06T02:56:28.888Z,65.30
2022-12-06T02:58:59.036Z,65.30
2022-12-06T03:01:31.472Z,65.30
2022-12-06T03:04:13.747Z,64.90
2022-12-06T03:06:52.363Z,65.30
2022-12-06T03:09:53.925Z,64.90
2022-12-06T03:12:34.032Z,65.50
2022-12-06T03:15:42.623Z,65.90
2022-12-06T03:28:45.862Z,67.60
2022-12-06T03:31:14.420Z,67.90
2022-12-06T03:33:53.828Z,68.00
2022-12-06T03:36:21.296Z,67.70
2022-12-06T03:38:56.093Z,68.40
2022-12-06T03:41:24.598Z,67.20
2022-12-06T03:43:51.670Z,66.40
2022-12-06T03:46:30.241Z,66.30
2022-12-06T03:49:06.933Z,66.00
2022-12-06T03:51:34.871Z,65.30
2022-12-06T03:54:04.725Z,65.80
2022-12-06T03:56:32.180Z,65.60
2022-12-06T03:58:59.367Z,65.30
2022-12-06T04:01:26.556Z,64.70
2022-12-06T04:03:54.080Z,64.60
2022-12-06T04:06:21.293Z,64.10
2022-12-06T04:08:48.406Z,64.10
2022-12-06T04:11:15.512Z,63.30
2022-12-06T04:13:43.019Z,63.10
2022-12-06T04:16:28.635Z,63.50
2022-12-06T04:18:56.077Z,63.40
2022-12-06T04:21:32.039Z,63.70
2022-12-06T04:23:59.399Z,63.60
2022-12-06T04:26:26.736Z,63.90
2022-12-06T04:29:13.025Z,64.30
2022-12-06T04:31:59.130Z,64.00
2022-12-06T04:34:44.856Z,63.70
2022-12-06T04:37:31.413Z,64.40
2022-12-06T04:39:59.165Z,64.70
2022-12-06T04:42:45.298Z,64.70
2022-12-06T04:45:13.018Z,64.70
2022-12-06T04:47:40.343Z,64.90
2022-12-06T04:50:07.858Z,64.70
2022-12-06T04:52:36.182Z,64.90
2022-12-06T04:55:04.963Z,64.70
2022-12-06T04:57:32.012Z,64.90
2022-12-06T04:59:59.577Z,65.20
2022-12-06T05:02:26.970Z,65.40
2022-12-06T05:04:54.026Z,65.20
2022-12-06T05:07:21.487Z,65.20
2022-12-06T05:09:48.773Z,65.30
2022-12-06T05:12:15.902Z,64.80
2022-12-06T05:14:43.006Z,65.00
2022-12-06T05:17:10.198Z,65.00
2022-12-06T05:19:37.342Z,64.00
2022-12-06T05:22:04.934Z,64.80
2022-12-06T05:24:32.101Z,64.70
2022-12-06T05:26:59.150Z,64.30
2022-12-06T05:29:26.368Z,64.10
2022-12-06T05:31:53.596Z,64.30
2022-12-06T05:34:20.779Z,63.60
2022-12-06T05:36:47.887Z,64.00
2022-12-06T05:39:16.170Z,63.80
2022-12-06T05:41:46.648Z,63.40
2022-12-06T05:44:13.903Z,64.10
2022-12-06T05:46:41.187Z,64.40
2022-12-06T05:49:08.385Z,64.70
2022-12-06T05:51:38.260Z,63.50
2022-12-06T05:54:06.857Z,63.60
2022-12-06T05:56:36.489Z,63.70
2022-12-06T05:59:03.699Z,64.00
2022-12-06T06:01:31.163Z,63.80
2022-12-06T06:03:58.306Z,63.80
2022-12-06T06:06:25.407Z,63.50
2022-12-06T06:08:52.906Z,64.40
2022-12-06T06:11:20.021Z,64.10
2022-12-06T06:13:47.179Z,63.70
2022-12-06T06:16:14.544Z,63.50
2022-12-06T06:18:42.185Z,64.20
2022-12-06T06:21:09.471Z,64.00
2022-12-06T06:23:36.926Z,63.50
2022-12-06T06:26:10.509Z,63.50
2022-12-06T06:28:38.095Z,63.70
2022-12-06T06:31:06.288Z,63.90
2022-12-06T06:33:33.573Z,63.80
2022-12-06T06:36:00.825Z,64.00
2022-12-06T06:38:27.886Z,64.00
2022-12-06T06:40:55.117Z,64.20
2022-12-06T06:43:22.521Z,64.50
2022-12-06T06:46:09.139Z,64.60
2022-12-06T06:48:38.340Z,64.80
2022-12-06T06:51:13.323Z,65.00
2022-12-06T06:53:43.308Z,64.90
2022-12-06T06:56:10.635Z,64.90
2022-12-06T06:58:37.835Z,64.50
2022-12-06T07:01:06.219Z,64.50
2022-12-06T07:03:33.457Z,65.10
2022-12-06T07:07:21.154Z,64.90
2022-12-06T07:09:48.629Z,65.00
2022-12-06T07:12:15.764Z,65.20
2022-12-06T07:14:51.881Z,65.20
2022-12-06T07:17:54.467Z,65.10
2022-12-06T07:20:22.074Z,65.00
2022-12-06T07:22:49.161Z,65.10
2022-12-06T07:25:49.178Z,64.90
2022-12-06T07:28:24.105Z,65.10
2022-12-06T07:31:45.086Z,65.30
2022-12-06T07:34:12.419Z,66.00
2022-12-06T07:36:39.584Z,64.70
2022-12-06T07:39:50.871Z,64.70
2022-12-06T07:42:36.843Z,64.80
2022-12-06T07:45:07.399Z,65.00
2022-12-06T07:47:38.163Z,64.90
2022-12-06T07:50:07.052Z,65.10
2022-12-06T07:52:34.842Z,65.10
2022-12-06T07:55:02.238Z,64.80
2022-12-06T07:57:29.369Z,65.20
2022-12-06T07:59:56.932Z,65.40
2022-12-06T08:02:25.915Z,65.80
2022-12-06T08:04:53.488Z,66.00
2022-12-06T08:07:21.651Z,66.20
2022-12-06T08:09:48.803Z,66.70
2022-12-06T08:12:15.858Z,67.10
2022-12-06T08:14:43.104Z,67.40
2022-12-06T08:17:10.254Z,67.30
2022-12-06T08:19:37.464Z,67.10
2022-12-06T08:22:04.900Z,66.60
2022-12-06T08:24:36.938Z,66.60
2022-12-06T08:27:06.190Z,65.70
2022-12-06T08:29:36.878Z,65.60
2022-12-06T08:32:05.055Z,64.90
2022-12-06T08:34:36.091Z,65.10
2022-12-06T08:37:06.253Z,63.50
2022-12-06T08:40:12.907Z,63.50
2022-12-06T08:42:46.457Z,63.10
2022-12-06T08:57:29.849Z,62.00
2022-12-06T09:06:08.621Z,61.20
2022-12-06T09:07:55.526Z,61.10
2022-12-06T09:13:05.531Z,61.90
2022-12-06T09:15:33.268Z,62.50
2022-12-06T09:18:01.203Z,62.70
2022-12-06T09:20:28.394Z,63.30
2022-12-06T09:26:23.118Z,62.90
2022-12-06T09:29:22.839Z,59.90
2022-12-06T09:31:50.694Z,59.50
2022-12-06T09:34:28.256Z,59.10
2022-12-06T09:37:24.611Z,58.50
2022-12-06T09:43:09.212Z,56.90
2022-12-06T09:46:17.978Z,57.20
2022-12-06T09:48:52.015Z,56.40
2022-12-06T09:52:30.224Z,56.50
2022-12-06T09:55:18.898Z,54.80
2022-12-06T10:02:32.943Z,53.30
2022-12-06T10:09:18.044Z,50.80
2022-12-06T10:12:09.833Z,52.50
2022-12-06T10:15:52.407Z,51.40
2022-12-06T10:18:28.913Z,51.10
2022-12-06T10:21:13.333Z,50.20
2022-12-06T10:24:37.517Z,50.80
2022-12-06T10:27:26.377Z,46.80
2022-12-06T10:29:54.057Z,46.70
2022-12-06T11:03:19.241Z,48.30
2022-12-06T11:48:23.786Z,44.00
2022-12-06T11:50:55.200Z,42.50
2022-12-06T11:54:10.039Z,42.40
2022-12-06T12:01:48.684Z,42.10
2022-12-06T12:06:16.243Z,40.70
2022-12-06T12:09:26.635Z,38.00
2022-12-06T12:25:19.000Z,36.20
2022-12-06T12:31:56.439Z,38.70
2022-12-06T12:34:27.231Z,38.60
2022-12-06T12:37:02.461Z,39.30
2022-12-06T12:39:36.203Z,40.30
2022-12-06T12:42:06.699Z,39.20
2022-12-06T12:44:38.364Z,39.40
2022-12-06T12:47:21.672Z,40.10
2022-12-06T12:50:20.751Z,37.60
2022-12-06T12:52:54.688Z,37.90
2022-12-06T12:55:26.941Z,38.40
2022-12-06T12:57:59.014Z,36.10
2022-12-06T13:00:29.157Z,37.40
2022-12-06T13:03:51.159Z,37.70
2022-12-06T13:06:56.452Z,36.80
2022-12-06T13:10:07.185Z,35.70
2022-12-06T13:13:21.253Z,35.50
2022-12-06T13:15:58.241Z,37.80
2022-12-06T13:26:33.822Z,35.00
2022-12-06T13:29:26.003Z,36.50
2022-12-06T13:32:58.749Z,36.70
2022-12-06T13:35:27.835Z,34.40
2022-12-06T13:38:25.874Z,35.30
2022-12-06T13:41:56.243Z,33.20
2022-12-06T13:44:43.897Z,31.70
2022-12-06T13:47:39.053Z,32.60
2022-12-06T13:50:15.547Z,33.40
2022-12-06T13:52:49.712Z,34.50
2022-12-06T13:55:28.554Z,35.30
2022-12-06T13:58:05.477Z,35.20
2022-12-06T14:00:34.880Z,34.50
2022-12-06T14:03:18.162Z,33.00
2022-12-06T14:06:22.123Z,33.80
2022-12-06T14:09:09.913Z,32.30
2022-12-06T14:11:44.295Z,31.60
2022-12-06T14:14:15.793Z,33.20
2022-12-06T14:16:52.048Z,32.10
2022-12-06T14:19:26.397Z,31.10
2022-12-06T14:22:50.500Z,31.80
2022-12-06T14:25:28.925Z,30.60
2022-12-06T14:28:15.405Z,30.40
2022-12-06T14:34:46.367Z,32.10
2022-12-06T14:38:01.963Z,32.60
2022-12-06T14:43:58.278Z,35.40
2022-12-06T14:46:26.004Z,34.70
2022-12-06T14:49:14.395Z,35.50
2022-12-06T14:51:42.036Z,35.40
2022-12-06T14:54:49.045Z,36.10
2022-12-06T14:57:32.887Z,37.00
2022-12-06T15:01:02.316Z,38.00
2022-12-06T15:10:47.847Z,39.30
2022-12-06T15:16:16.915Z,38.20
2022-12-06T15:18:59.744Z,38.90
2022-12-06T15:21:27.622Z,39.80
2022-12-06T15:55:21.914Z,43.70
2022-12-06T15:57:52.263Z,42.50
2022-12-06T16:01:11.067Z,42.90
2022-12-06T16:10:15.589Z,43.90
2022-12-06T16:13:04.835Z,45.20
2022-12-06T16:16:44.130Z,45.80
2022-12-06T16:19:11.724Z,47.30
2022-12-06T16:21:51.679Z,48.00
2022-12-06T16:24:19.955Z,48.60
2022-12-06T16:26:47.311Z,49.60
2022-12-06T16:29:16.249Z,50.30
2022-12-06T16:31:43.923Z,50.70
2022-12-06T16:34:11.742Z,51.00
2022-12-06T16:37:15.696Z,51.50
2022-12-06T16:39:42.972Z,51.10
2022-12-06T16:42:10.070Z,50.80
2022-12-06T16:44:51.511Z,50.20
2022-12-06T16:49:50.725Z,50.00
2022-12-06T16:52:18.020Z,50.20
2022-12-06T16:55:18.763Z,50.00
2022-12-06T16:57:46.121Z,50.00
2022-12-06T17:00:14.056Z,50.00
2022-12-06T17:02:44.790Z,50.30
2022-12-06T17:05:44.819Z,50.30
2022-12-06T17:17:40.175Z,51.40
2022-12-06T17:20:09.308Z,51.40
2022-12-06T17:22:40.960Z,51.30
2022-12-06T17:25:09.691Z,51.80
2022-12-06T17:27:37.530Z,51.90
2022-12-06T17:30:09.594Z,51.40
2022-12-06T17:32:36.844Z,51.50
2022-12-06T17:35:04.477Z,51.20
2022-12-06T17:37:34.646Z,51.20
2022-12-06T17:40:04.794Z,51.00
2022-12-06T17:42:50.309Z,51.20
2022-12-06T17:45:20.722Z,51.10
2022-12-06T17:47:51.766Z,51.60
2022-12-06T17:50:20.768Z,51.30
2022-12-06T17:52:48.552Z,50.70
2022-12-06T17:55:15.719Z,50.00
2022-12-06T17:57:42.950Z,49.50
2022-12-06T18:00:10.491Z,49.60
2022-12-06T18:02:37.641Z,49.80
2022-12-06T18:05:08.548Z,49.10
2022-12-06T18:07:35.939Z,49.50
2022-12-06T18:10:03.676Z,49.70
2022-12-06T18:12:32.024Z,49.80
2022-12-06T18:15:02.471Z,50.00
2022-12-06T18:17:29.826Z,50.10
2022-12-06T18:19:57.126Z,50.00
2022-12-06T18:22:24.234Z,50.00
2022-12-06T18:24:51.448Z,50.00
2022-12-06T18:27:18.776Z,50.60
2022-12-06T18:29:45.878Z,50.30
2022-12-06T18:32:13.040Z,50.90
2022-12-06T18:34:40.434Z,51.20
2022-12-06T18:37:07.573Z,51.60
2022-12-06T18:39:34.700Z,52.10
2022-12-06T18:42:02.062Z,52.30
2022-12-06T18:44:29.177Z,52.70
2022-12-06T18:46:56.335Z,53.20
2022-12-06T18:49:23.677Z,53.10
2022-12-06T18:51:50.851Z,53.50
2022-12-06T18:54:18.075Z,53.60
2022-12-06T18:56:45.457Z,54.10
2022-12-06T18:59:12.807Z,53.40
2022-12-06T19:01:40.286Z,54.00
2022-12-06T19:04:08.781Z,54.80
2022-12-06T19:06:37.883Z,54.90
2022-12-06T19:09:07.149Z,55.00
2022-12-06T19:11:37.356Z,55.20
2022-12-06T19:14:04.773Z,55.30
2022-12-06T19:16:46.313Z,55.20
2022-12-06T19:19:16.831Z,55.40
2022-12-06T19:21:45.401Z,55.50
2022-12-06T19:24:13.335Z,55.60
2022-12-06T19:26:40.395Z,55.80
2022-12-06T19:29:08.254Z,55.70
2022-12-06T19:31:36.114Z,56.00
2022-12-06T19:34:03.297Z,56.00
2022-12-06T19:36:30.865Z,56.00
2022-12-06T19:39:03.264Z,56.00
2022-12-06T19:41:30.729Z,55.50
2022-12-06T19:44:17.123Z,56.10
2022-12-06T19:46:49.520Z,55.90
2022-12-06T19:49:19.203Z,55.60
2022-12-06T19:52:29.312Z,55.90
2022-12-06T19:55:04.846Z,56.00
2022-12-06T19:57:32.344Z,56.00
2022-12-06T20:05:54.946Z,55.20
2022-12-06T20:08:22.419Z,54.80
2022-12-06T20:14:16.578Z,54.90
2022-12-06T20:16:44.245Z,54.70
2022-12-06T20:19:54.110Z,54.60
2022-12-06T20:22:55.316Z,54.80
2022-12-06T20:25:59.139Z,54.20
2022-12-06T20:33:18.978Z,55.20
2022-12-06T20:39:47.664Z,55.10
2022-12-06T20:42:33.511Z,55.20
2022-12-06T20:45:00.992Z,56.00
2022-12-06T20:51:39.215Z,56.30
2022-12-06T20:54:15.222Z,56.50
2022-12-06T20:56:47.744Z,56.70
2022-12-06T21:03:32.552Z,55.50
2022-12-06T21:06:47.725Z,55.50
2022-12-06T21:24:40.962Z,56.40
2022-12-06T21:27:08.403Z,56.80
2022-12-06T21:29:43.069Z,56.70
2022-12-06T21:33:08.382Z,56.60
2022-12-06T21:35:40.255Z,56.20
2022-12-06T21:41:38.087Z,56.80
2022-12-06T21:44:08.792Z,56.60
2022-12-06T21:46:38.765Z,57.40
2022-12-06T21:49:13.130Z,57.70
2022-12-06T21:51:40.652Z,57.50
2022-12-06T21:54:11.324Z,57.00
2022-12-06T21:56:41.406Z,57.60
2022-12-06T21:59:32.384Z,57.50
2022-12-06T22:01:59.881Z,57.70
2022-12-06T22:04:27.037Z,57.90
2022-12-06T22:06:54.286Z,58.30
2022-12-06T22:09:21.580Z,58.40
2022-12-06T22:11:49.155Z,58.60
2022-12-06T22:14:22.803Z,59.10
2022-12-06T22:16:52.694Z,59.70
2022-12-06T22:19:19.955Z,59.60
2022-12-06T22:21:48.037Z,60.10
2022-12-06T22:24:49.284Z,60.40
2022-12-06T22:27:25.706Z,60.50
2022-12-06T22:31:26.597Z,61.20
2022-12-06T22:33:52.365Z,62.00
2022-12-06T22:36:27.101Z,63.10
2022-12-06T22:38:56.895Z,63.20
2022-12-06T22:41:24.248Z,63.50
2022-12-06T22:44:02.245Z,63.30
2022-12-06T22:46:29.729Z,63.20
2022-12-06T22:48:57.510Z,63.20
2022-12-06T22:51:32.532Z,63.40
2022-12-06T22:54:04.921Z,63.20
2022-12-06T22:56:33.815Z,63.20
2022-12-06T22:59:01.089Z,63.60
2022-12-06T23:01:30.255Z,63.90
2022-12-06T23:03:59.362Z,64.50
2022-12-06T23:06:26.592Z,64.60
2022-12-06T23:08:56.506Z,64.60
2022-12-06T23:11:28.622Z,64.60
2022-12-06T23:13:56.887Z,65.10
2022-12-06T23:16:26.483Z,65.80
2022-12-06T23:18:54.011Z,65.90
2022-12-06T23:21:26.072Z,66.10
2022-12-06T23:24:03.341Z,66.50
2022-12-06T23:26:41.053Z,66.70
2022-12-06T23:51:21.005Z,63.60
2022-12-06T23:53:52.705Z,62.80
2022-12-06T23:56:20.562Z,62.40
2022-12-06T23:58:47.816Z,62.90
